createdAt,value
2023-03-06T00:00:53.104Z,-5.76
2023-03-06T00:04:19.212Z,-5.73
2023-03-06T00:07:45.338Z,-5.70
2023-03-06T00:11:14.816Z,-5.71
2023-03-06T00:14:40.565Z,-5.75
2023-03-06T00:18:07.075Z,-5.79
2023-03-06T00:21:32.948Z,-5.87
2023-03-06T00:25:00.916Z,-5.94
2023-03-06T00:28:30.988Z,-6.01
2023-03-06T00:31:56.610Z,-6.08
2023-03-06T00:35:22.250Z,-6.15
2023-03-06T00:38:50.074Z,-6.22
2023-03-06T00:42:16.327Z,-6.31
2023-03-06T00:45:42.070Z,-6.37
2023-03-06T00:49:07.797Z,-6.39
2023-03-06T00:52:33.814Z,-6.41
2023-03-06T00:56:01.769Z,-6.41
2023-03-06T00:59:28.724Z,-6.39
2023-03-06T01:02:56.659Z,-6.32
2023-03-06T01:06:22.650Z,-6.23
2023-03-06T01:09:48.202Z,-6.16
2023-03-06T01:13:15.691Z,-6.09
2023-03-06T01:16:41.521Z,-6.03
2023-03-06T01:20:08.203Z,-5.98
2023-03-06T01:23:36.089Z,-5.96
2023-03-06T01:27:02.900Z,-5.94
2023-03-06T01:30:30.775Z,-5.92
2023-03-06T01:33:56.503Z,-5.91
2023-03-06T01:37:22.249Z,-5.91
2023-03-06T01:40:48.080Z,-5.90
2023-03-06T01:44:14.559Z,-5.91
2023-03-06T01:47:41.040Z,-5.91
2023-03-06T01:51:07.838Z,-5.92
2023-03-06T01:54:39.972Z,-5.90
2023-03-06T01:58:08.283Z,-5.86
2023-03-06T02:01:34.466Z,-5.79
2023-03-06T02:05:02.227Z,-5.70
2023-03-06T02:08:28.327Z,-5.60
2023-03-06T02:11:54.081Z,-5.47
2023-03-06T02:15:21.835Z,-5.35
2023-03-06T02:18:47.989Z,-5.26
2023-03-06T02:22:15.947Z,-5.17
2023-03-06T02:25:44.829Z,-5.11
2023-03-06T02:29:11.032Z,-5.04
2023-03-06T02:32:37.202Z,-5.00
2023-03-06T02:36:04.882Z,-4.98
2023-03-06T02:39:33.447Z,-4.94
2023-03-06T02:42:59.824Z,-4.90
2023-03-06T02:46:27.032Z,-4.84
2023-03-06T02:49:53.271Z,-4.77
2023-03-06T02:53:20.206Z,-4.69
2023-03-06T02:56:47.320Z,-4.60
2023-03-06T03:00:14.557Z,-4.49
2023-03-06T03:03:40.724Z,-4.41
2023-03-06T03:07:06.955Z,-4.35
2023-03-06T03:10:33.884Z,-4.31
2023-03-06T03:14:02.882Z,-4.28
2023-03-06T03:17:35.699Z,-4.26
2023-03-06T03:21:02.965Z,-4.24
2023-03-06T03:24:30.345Z,-4.22
2023-03-06T03:27:56.983Z,-4.21
2023-03-06T03:31:24.779Z,-4.21
2023-03-06T03:34:50.660Z,-4.19
2023-03-06T03:38:16.563Z,-4.15
2023-03-06T03:41:42.701Z,-4.10
2023-03-06T03:45:10.204Z,-4.02
2023-03-06T03:48:27.303Z,-3.95
2023-03-06T03:51:55.709Z,-3.86
2023-03-06T03:55:23.153Z,-3.77
2023-03-06T03:58:52.215Z,-3.71
2023-03-06T04:02:27.931Z,-3.68
2023-03-06T04:06:04.594Z,-3.66
2023-03-06T04:09:31.818Z,-3.64
2023-03-06T04:12:58.523Z,-3.63
2023-03-06T04:16:25.218Z,-3.62
2023-03-06T04:19:51.671Z,-3.60
2023-03-06T04:23:18.046Z,-3.55
2023-03-06T04:26:52.161Z,-3.47
2023-03-06T04:30:29.727Z,-3.40
2023-03-06T04:33:58.118Z,-3.30
2023-03-06T04:37:29.670Z,-3.23
2023-03-06T04:40:59.058Z,-3.18
2023-03-06T04:44:25.213Z,-3.14
2023-03-06T04:47:53.854Z,-3.12
2023-03-06T04:51:41.598Z,-3.09
2023-03-06T04:55:14.135Z,-3.07
2023-03-06T04:58:40.453Z,-3.03
2023-03-06T05:02:26.561Z,-2.96
2023-03-06T05:05:55.805Z,-2.87
2023-03-06T05:09:23.768Z,-2.78
2023-03-06T05:12:53.991Z,-2.69
2023-03-06T05:16:45.070Z,-2.62
2023-03-06T05:20:12.811Z,-2.58
2023-03-06T05:23:40.133Z,-2.56
2023-03-06T05:27:27.363Z,-2.55
2023-03-06T05:31:22.631Z,-2.56
2023-03-06T05:34:49.347Z,-2.55
2023-03-06T05:38:37.077Z,-2.53
2023-03-06T05:42:04.465Z,-2.49
2023-03-06T05:45:34.177Z,-2.44
2023-03-06T05:48:59.995Z,-2.38
2023-03-06T05:52:28.847Z,-2.34
2023-03-06T05:56:00.074Z,-2.31
2023-03-06T05:59:46.509Z,-2.29
2023-03-06T06:03:18.451Z,-2.28
2023-03-06T06:07:24.673Z,-2.29
2023-03-06T06:10:53.519Z,-2.28
2023-03-06T06:14:20.284Z,-2.25
2023-03-06T06:18:08.461Z,-2.23
2023-03-06T06:21:35.991Z,-2.21
2023-03-06T06:25:23.705Z,-2.19
2023-03-06T06:28:51.395Z,-2.17
2023-03-06T06:32:17.656Z,-2.12
2023-03-06T06:35:44.082Z,-2.03
2023-03-06T06:39:12.855Z,-1.93
2023-03-06T06:42:40.381Z,-1.81
2023-03-06T06:46:38.831Z,-1.72
2023-03-06T06:49:53.536Z,-1.67
2023-03-06T06:53:19.395Z,-1.62
2023-03-06T06:56:45.362Z,-1.62
2023-03-06T07:00:14.465Z,-1.61
2023-03-06T07:03:40.725Z,-1.57
2023-03-06T07:07:06.465Z,-1.46
2023-03-06T07:10:32.460Z,-1.35
2023-03-06T07:13:58.425Z,-1.19
2023-03-06T07:17:24.341Z,-1.05
2023-03-06T07:20:50.203Z,-0.97
2023-03-06T07:24:16.659Z,-0.93
2023-03-06T07:27:44.324Z,-0.90
2023-03-06T07:31:08.704Z,-0.92
2023-03-06T07:35:27.205Z,-0.93
2023-03-06T07:39:02.677Z,-0.90
2023-03-06T07:42:29.468Z,-0.79
2023-03-06T07:45:58.968Z,-0.77
2023-03-06T07:49:24.990Z,-0.84
2023-03-06T07:52:52.844Z,-0.82
2023-03-06T07:56:18.640Z,-0.76
2023-03-06T07:59:44.397Z,-0.72
2023-03-06T08:03:11.421Z,-0.66
2023-03-06T08:06:37.165Z,-0.62
2023-03-06T08:10:05.191Z,-0.55
2023-03-06T08:13:31.017Z,-0.49
2023-03-06T08:16:57.423Z,-0.37
2023-03-06T08:20:23.458Z,-0.30
2023-03-06T08:23:49.162Z,-0.25
2023-03-06T08:27:15.064Z,-0.14
2023-03-06T08:30:41.056Z,0.04
2023-03-06T08:34:07.619Z,0.18
2023-03-06T08:37:33.487Z,0.30
2023-03-06T08:40:59.441Z,0.50
2023-03-06T08:45:12.724Z,0.78
2023-03-06T08:48:12.077Z,1.09
2023-03-06T08:51:37.886Z,1.28
2023-03-06T08:55:04.143Z,1.37
2023-03-06T08:58:30.607Z,1.46
2023-03-06T09:01:56.276Z,1.58
2023-03-06T09:05:22.374Z,1.68
2023-03-06T09:08:56.572Z,1.85
2023-03-06T09:12:24.671Z,2.04
2023-03-06T09:15:50.579Z,2.14
2023-03-06T09:19:16.261Z,2.05
2023-03-06T09:22:46.152Z,2.02
2023-03-06T09:26:12.224Z,2.06
2023-03-06T09:29:37.771Z,2.13
2023-03-06T09:33:03.394Z,2.12
2023-03-06T09:36:29.389Z,2.35
2023-03-06T09:39:55.280Z,2.57
2023-03-06T09:43:26.666Z,2.72
2023-03-06T09:47:14.864Z,3.02
2023-03-06T09:50:45.621Z,3.42
2023-03-06T09:54:13.328Z,3.93
2023-03-06T09:57:42.374Z,4.41
2023-03-06T10:01:13.133Z,4.83
2023-03-06T10:04:41.501Z,5.05
2023-03-06T10:08:13.341Z,5.14
2023-03-06T10:11:40.492Z,5.28
2023-03-06T10:15:13.169Z,5.51
2023-03-06T10:18:39.227Z,5.72
2023-03-06T10:22:07.826Z,5.79
2023-03-06T10:25:37.973Z,5.93
2023-03-06T10:29:17.432Z,6.05
2023-03-06T10:32:49.477Z,6.04
2023-03-06T10:36:16.266Z,6.17
2023-03-06T10:39:41.952Z,6.09
2023-03-06T10:43:12.388Z,5.91
2023-03-06T10:46:39.384Z,5.66
2023-03-06T10:50:08.419Z,5.69
2023-03-06T10:53:34.128Z,5.69
2023-03-06T10:57:09.430Z,5.85
2023-03-06T11:00:36.265Z,6.00
2023-03-06T11:04:15.106Z,6.04
2023-03-06T11:07:54.753Z,6.16
2023-03-06T11:11:36.801Z,6.31
2023-03-06T11:15:21.059Z,6.25
2023-03-06T11:18:56.485Z,6.02
2023-03-06T11:22:22.216Z,5.79
2023-03-06T11:25:50.467Z,5.69
2023-03-06T11:29:29.376Z,5.53
2023-03-06T11:32:58.563Z,5.26
2023-03-06T11:36:27.385Z,5.09
2023-03-06T11:39:58.084Z,4.58
2023-03-06T11:43:26.439Z,4.14
2023-03-06T11:46:54.770Z,3.64
2023-03-06T11:50:23.639Z,3.25
2023-03-06T11:53:49.449Z,3.12
2023-03-06T11:57:16.671Z,2.88
2023-03-06T12:00:49.662Z,2.71
2023-03-06T12:04:32.200Z,2.66
2023-03-06T12:08:03.331Z,2.35
2023-03-06T12:11:33.377Z,2.29
2023-03-06T12:15:08.374Z,2.38
2023-03-06T12:18:46.057Z,2.59
2023-03-06T12:22:21.439Z,2.60
2023-03-06T12:25:49.679Z,2.70
2023-03-06T12:29:23.926Z,2.81
2023-03-06T12:32:53.629Z,2.59
2023-03-06T12:36:30.872Z,2.43
2023-03-06T12:40:23.904Z,2.23
2023-03-06T12:43:55.252Z,2.24
2023-03-06T12:47:17.068Z,2.43
2023-03-06T12:50:28.028Z,2.56
2023-03-06T12:53:37.242Z,2.41
2023-03-06T12:56:55.143Z,2.39
2023-03-06T13:00:40.522Z,2.48
2023-03-06T13:04:01.527Z,2.28
2023-03-06T13:07:28.982Z,2.23
2023-03-06T13:10:40.040Z,2.22
2023-03-06T13:14:19.475Z,2.03
2023-03-06T13:17:45.230Z,1.94
2023-03-06T13:21:25.491Z,1.86
2023-03-06T13:24:43.354Z,1.81
2023-03-06T13:28:03.328Z,1.71
2023-03-06T13:31:24.963Z,1.59
2023-03-06T13:34:47.873Z,1.42
2023-03-06T13:38:30.492Z,1.48
2023-03-06T13:41:58.215Z,1.58
2023-03-06T13:45:26.872Z,1.71
2023-03-06T13:48:45.970Z,1.75
2023-03-06T13:52:09.532Z,1.68
2023-03-06T13:55:27.625Z,1.64
2023-03-06T13:59:04.053Z,1.54
2023-03-06T14:02:42.124Z,1.41
2023-03-06T14:05:55.367Z,1.29
2023-03-06T14:09:04.956Z,1.33
2023-03-06T14:12:25.007Z,1.33
2023-03-06T14:15:52.205Z,1.43
2023-03-06T14:19:18.906Z,1.49
2023-03-06T14:22:37.138Z,1.46
2023-03-06T14:25:46.291Z,1.42
2023-03-06T14:29:20.307Z,1.24
2023-03-06T14:32:49.956Z,1.03
2023-03-06T14:36:17.527Z,0.95
2023-03-06T14:39:45.280Z,0.87
2023-03-06T14:43:14.030Z,0.90
2023-03-06T14:46:39.869Z,1.07
2023-03-06T14:50:23.320Z,1.19
2023-03-06T14:53:42.459Z,1.15
2023-03-06T14:57:02.668Z,1.13
2023-03-06T15:00:34.636Z,1.08
2023-03-06T15:04:01.372Z,1.07
2023-03-06T15:07:23.488Z,1.17
2023-03-06T15:10:30.612Z,1.28
2023-03-06T15:14:03.114Z,1.37
2023-03-06T15:17:29.706Z,1.35
2023-03-06T15:20:53.653Z,1.32
2023-03-06T15:24:29.774Z,1.35
2023-03-06T15:27:50.524Z,1.27
2023-03-06T15:31:22.010Z,1.15
2023-03-06T15:34:49.767Z,1.08
2023-03-06T15:38:34.825Z,0.92
2023-03-06T15:41:59.682Z,0.82
2023-03-06T15:45:36.173Z,0.80
2023-03-06T15:48:51.864Z,0.78
2023-03-06T15:52:21.463Z,0.65
2023-03-06T15:55:37.857Z,0.49
2023-03-06T15:58:53.555Z,0.40
2023-03-06T16:02:14.887Z,0.31
2023-03-06T16:05:31.103Z,0.19
2023-03-06T16:08:55.653Z,0.07
2023-03-06T16:12:01.274Z,0.03
2023-03-06T16:15:20.621Z,0.01
2023-03-06T16:18:37.805Z,0.01
2023-03-06T16:21:44.207Z,-0.05
2023-03-06T16:24:52.590Z,-0.17
2023-03-06T16:28:11.209Z,-0.27
2023-03-06T16:31:28.288Z,-0.38
2023-03-06T16:34:34.008Z,-0.45
2023-03-06T16:37:42.604Z,-0.48
2023-03-06T16:40:59.348Z,-0.55
2023-03-06T16:44:11.796Z,-0.63
2023-03-06T16:47:27.898Z,-0.73
2023-03-06T16:50:43.769Z,-0.86
2023-03-06T16:53:55.364Z,-1.01
2023-03-06T16:57:04.217Z,-1.18
2023-03-06T17:00:11.312Z,-1.34
2023-03-06T17:03:20.038Z,-1.48
2023-03-06T17:06:25.723Z,-1.59
2023-03-06T17:09:31.613Z,-1.70
2023-03-06T17:12:37.262Z,-1.76
2023-03-06T17:15:42.828Z,-1.81
2023-03-06T17:18:50.979Z,-1.88
2023-03-06T17:21:56.364Z,-1.95
2023-03-06T17:25:14.687Z,-2.06
2023-03-06T17:28:20.131Z,-2.17
2023-03-06T17:31:47.259Z,-2.29
2023-03-06T17:34:53.099Z,-2.38
2023-03-06T17:38:03.621Z,-2.48
2023-03-06T17:41:18.507Z,-2.58
2023-03-06T17:44:27.137Z,-2.63
2023-03-06T17:47:32.834Z,-2.70
2023-03-06T17:50:38.282Z,-2.81
2023-03-06T17:53:43.632Z,-2.91
2023-03-06T17:56:52.234Z,-3.01
2023-03-06T17:59:57.859Z,-3.10
2023-03-06T18:03:03.426Z,-3.18
2023-03-06T18:06:10.470Z,-3.23
2023-03-06T18:09:15.958Z,-3.22
2023-03-06T18:12:33.189Z,-3.18
2023-03-06T18:15:41.623Z,-3.16
2023-03-06T18:18:52.221Z,-3.16
2023-03-06T18:22:08.527Z,-3.17
2023-03-06T18:25:14.452Z,-3.20
2023-03-06T18:28:20.109Z,-3.22
2023-03-06T18:31:26.713Z,-3.24
2023-03-06T18:34:32.227Z,-3.27
2023-03-06T18:37:37.965Z,-3.33
2023-03-06T18:40:56.780Z,-3.40
2023-03-06T18:44:14.691Z,-3.48
2023-03-06T18:47:20.107Z,-3.56
2023-03-06T18:50:25.554Z,-3.64
2023-03-06T18:53:30.959Z,-3.68
2023-03-06T18:56:36.586Z,-3.72
2023-03-06T18:59:42.017Z,-3.77
2023-03-06T19:02:50.469Z,-3.83
2023-03-06T19:11:04.834Z,-4.08
2023-03-06T19:14:18.062Z,-4.17
2023-03-06T19:17:25.015Z,-4.24
2023-03-06T19:20:30.503Z,-4.29
2023-03-06T19:23:35.954Z,-4.30
2023-03-06T19:26:55.177Z,-4.29
2023-03-06T19:30:00.699Z,-4.25
2023-03-06T19:33:09.094Z,-4.22
2023-03-06T19:36:15.429Z,-4.23
2023-03-06T19:39:22.401Z,-4.27
2023-03-06T19:42:47.997Z,-4.32
2023-03-06T19:46:00.663Z,-4.37
2023-03-06T19:49:11.827Z,-4.40
2023-03-06T19:52:18.207Z,-4.42
2023-03-06T19:55:28.596Z,-4.45
2023-03-06T19:58:34.206Z,-4.44
2023-03-06T20:01:39.761Z,-4.46
2023-03-06T20:04:45.480Z,-4.50
2023-03-06T20:07:51.514Z,-4.56
2023-03-06T20:10:59.851Z,-4.64
2023-03-06T20:14:05.881Z,-4.73
2023-03-06T20:17:11.288Z,-4.81
2023-03-06T20:20:16.853Z,-4.91
2023-03-06T20:23:22.294Z,-4.99
2023-03-06T20:26:28.396Z,-5.06
2023-03-06T20:29:33.983Z,-5.15
2023-03-06T20:32:39.853Z,-5.23
2023-03-06T20:35:48.228Z,-5.34
2023-03-06T20:38:56.969Z,-5.42
2023-03-06T20:42:02.461Z,-5.51
2023-03-06T20:45:08.873Z,-5.59
2023-03-06T20:48:14.203Z,-5.65
2023-03-06T20:51:20.658Z,-5.71
2023-03-06T20:54:26.316Z,-5.74
2023-03-06T20:57:31.882Z,-5.78
2023-03-06T21:00:37.426Z,-5.79
2023-03-06T21:03:42.859Z,-5.80
2023-03-06T21:06:48.250Z,-5.82
2023-03-06T21:09:53.784Z,-5.86
2023-03-06T21:12:59.539Z,-5.90
2023-03-06T21:16:09.759Z,-5.93
2023-03-06T21:19:15.288Z,-5.97
2023-03-06T21:22:20.980Z,-6.05
2023-03-06T21:25:26.455Z,-6.14
2023-03-06T21:28:31.956Z,-6.21
2023-03-06T21:31:37.450Z,-6.26
2023-03-06T21:34:52.293Z,-6.32
2023-03-06T21:37:57.935Z,-6.39
2023-03-06T21:41:08.949Z,-6.44
2023-03-06T21:44:14.477Z,-6.46
2023-03-06T21:47:20.012Z,-6.48
2023-03-06T21:50:28.782Z,-6.54
2023-03-06T21:53:37.031Z,-6.58
2023-03-06T21:56:44.826Z,-6.63
2023-03-06T21:59:55.713Z,-6.65
2023-03-06T22:03:04.869Z,-6.65
2023-03-06T22:06:14.226Z,-6.59
2023-03-06T22:09:20.067Z,-6.54
2023-03-06T22:12:27.852Z,-6.53
2023-03-06T22:15:35.504Z,-6.56
2023-03-06T22:18:46.637Z,-6.62
2023-03-06T22:21:56.675Z,-6.68
2023-03-06T22:25:06.043Z,-6.77
2023-03-06T22:28:31.980Z,-6.86
2023-03-06T22:31:39.898Z,-6.95
2023-03-06T22:34:47.956Z,-7.02
2023-03-06T22:38:04.687Z,-7.07
2023-03-06T22:41:13.843Z,-7.10
2023-03-06T22:44:20.267Z,-7.11
2023-03-06T22:47:25.638Z,-7.17
2023-03-06T22:50:31.119Z,-7.20
2023-03-06T22:53:39.546Z,-7.25
2023-03-06T22:56:44.923Z,-7.29
2023-03-06T22:59:50.484Z,-7.30
2023-03-06T23:02:56.030Z,-7.27
2023-03-06T23:06:01.403Z,-7.16
2023-03-06T23:09:08.000Z,-6.97
2023-03-06T23:12:31.863Z,-6.70
2023-03-06T23:15:56.134Z,-6.42
2023-03-06T23:19:20.072Z,-6.12
2023-03-06T23:22:44.272Z,-5.82
2023-03-06T23:26:09.322Z,-5.58
2023-03-06T23:29:14.916Z,-5.43
2023-03-06T23:32:20.588Z,-5.34
2023-03-06T23:35:26.128Z,-5.27
2023-03-06T23:38:35.146Z,-5.24
2023-03-06T23:41:40.992Z,-5.23
2023-03-06T23:44:50.087Z,-5.24
2023-03-06T23:47:57.830Z,-5.22
2023-03-06T23:51:05.794Z,-5.20
2023-03-06T23:54:11.595Z,-5.20
2023-03-06T23:57:17.525Z,-5.19
